Flomot, Texas
Current Conditions -  °F | °C
As of 5:15 AM on Saturday 25 Oct 2014 (Local Time) from KPVW Reporting Station
Clear Clear  
Wind Chill: 50°   Ceiling: Unl
Heat Index: 50°   Visibility: 10mi
Dew Point: 47°   Wind: 3mph
Humidity: 90%   Direction: 250°WSW
Pressure: 30.16"   Gusts: NA
Location:  34.23°N, 100.99°W
Report Text: KPVW 251015Z AUTO 25003KT 10SM CLR 10/08 A3016 RMK AO2 T01000084
Loading
Personal Weather Stations






























Interactive Weather Map
Tropical Storm Tracking
New forecast layout! Learn more

10-Day Weather Forecast

Advertisements
Track Severe Weather on mobile